Time;durP1;ratioP1;P1;durP2;ratioP2;P2;SDS_P1;SDS_P2;PMS_P1;PMS_P2;Temp;Humidity;BMP_temperature;BMP_pressure;BME280_temperature;BME280_humidity;BME280_pressure;Samples;Min_cycle;Max_cycle;Signal;HPM_P1;HPM_P2
2023/07/12 00:00:27;;;;;;;;;;;30.00;60.30;;;;;;5146029;27;43115;-82
2023/07/12 00:02:54;;;;;;;;;;;30.00;60.40;;;;;;5127328;27;43947;-85
2023/07/12 00:05:19;;;;;;;;;;;30.00;60.30;;;;;;5137215;27;42935;-90
2023/07/12 00:07:45;;;;;;;;;;;30.00;60.40;;;;;;5146143;27;43691;-90
2023/07/12 00:10:13;;;;;;;;;;;29.90;60.20;;;;;;5146495;27;42944;-85
2023/07/12 00:12:38;;;;;;;;;;;30.00;60.30;;;;;;5147139;27;43657;-90
2023/07/12 00:15:04;;;;;;;;;;;30.00;60.30;;;;;;5147693;27;42839;-87
2023/07/12 00:17:29;;;;;;;;;;;30.00;60.30;;;;;;5129839;27;43039;-83
2023/07/12 00:19:55;;;;;;;;;;;30.00;60.40;;;;;;5140779;27;42987;-84
2023/07/12 00:22:20;;;;;;;;;;;30.00;60.40;;;;;;5126303;27;43528;-83
2023/07/12 00:24:46;;;;;;;;;;;30.00;60.40;;;;;;5126049;27;43086;-83
2023/07/12 00:27:11;;;;;;;;;;;30.00;60.40;;;;;;5126439;27;43080;-82
2023/07/12 00:29:37;;;;;;;;;;;30.00;60.40;;;;;;5130410;27;42960;-90
2023/07/12 00:32:02;;;;;;;;;;;30.00;60.40;;;;;;5144553;27;42965;-82
2023/07/12 00:34:28;;;;;;;;;;;30.00;60.40;;;;;;5145357;27;43389;-89
2023/07/12 00:36:53;;;;;;;;;;;29.90;60.30;;;;;;5132222;27;43844;-82
2023/07/12 00:39:19;;;;;;;;;;;29.90;60.30;;;;;;5138698;27;42834;-84
2023/07/12 00:41:50;;;;;;;;;;;30.00;60.40;;;;;;5130429;27;43888;-83
2023/07/12 00:44:39;;;;;;;;;;;29.90;60.30;;;;;;5131515;27;42969;-82
2023/07/12 00:47:04;;;;;;;;;;;30.00;60.40;;;;;;5117391;27;43815;-84
2023/07/12 00:49:30;;;;;;;;;;;29.90;60.30;;;;;;5145875;27;42991;-86
2023/07/12 00:52:00;;;;;;;;;;;29.80;60.20;;;;;;5141705;27;43048;-83
2023/07/12 00:54:45;;;;;;;;;;;29.90;60.30;;;;;;5145874;27;42924;-83
2023/07/12 00:57:11;;;;;;;;;;;29.90;60.30;;;;;;5145311;27;43535;-83
2023/07/12 00:59:36;;;;;;;;;;;29.90;60.40;;;;;;5145177;27;43029;-89
2023/07/12 01:02:03;;;;;;;;;;;29.90;60.30;;;;;;5145766;27;42954;-83
2023/07/12 01:04:32;;;;;;;;;;;29.90;60.30;;;;;;5126635;27;42915;-86
2023/07/12 01:06:58;;;;;;;;;;;29.90;60.30;;;;;;5137425;27;42962;-85
2023/07/12 01:09:25;;;;;;;;;;;29.90;60.40;;;;;;5121392;27;43000;-88
2023/07/12 01:11:51;;;;;;;;;;;29.90;60.40;;;;;;5142638;27;43842;-85
2023/07/12 01:14:17;;;;;;;;;;;30.00;60.40;;;;;;5143166;27;43065;-90
2023/07/12 01:16:45;;;;;;;;;;;29.90;60.40;;;;;;5138593;27;42906;-88
2023/07/12 01:19:11;;;;;;;;;;;29.90;60.40;;;;;;5139552;27;42931;-89
2023/07/12 01:21:41;;;;;;;;;;;29.90;60.40;;;;;;5125861;27;44803;-83
2023/07/12 01:24:06;;;;;;;;;;;29.90;60.40;;;;;;5134415;27;42875;-87
2023/07/12 01:26:34;;;;;;;;;;;29.90;60.40;;;;;;5126765;27;45013;-85
2023/07/12 01:29:01;;;;;;;;;;;29.90;60.40;;;;;;5113011;27;42865;-91
2023/07/12 01:31:27;;;;;;;;;;;29.90;60.40;;;;;;5145088;27;43293;-85
2023/07/12 01:33:53;;;;;;;;;;;29.90;60.40;;;;;;5145460;27;43981;-84
2023/07/12 01:36:20;;;;;;;;;;;29.90;60.40;;;;;;5135299;27;43107;-84
2023/07/12 01:38:46;;;;;;;;;;;29.90;60.40;;;;;;5127406;27;42918;-83
2023/07/12 01:41:12;;;;;;;;;;;29.90;60.40;;;;;;5135508;27;43015;-83
2023/07/12 01:43:37;;;;;;;;;;;29.90;60.40;;;;;;5140835;27;42900;-83
2023/07/12 01:46:03;;;;;;;;;;;29.80;60.40;;;;;;5144826;27;42904;-91
2023/07/12 01:48:29;;;;;;;;;;;29.80;60.40;;;;;;5120104;27;43132;-91
2023/07/12 01:50:54;;;;;;;;;;;29.90;60.50;;;;;;5144778;27;43056;-89
2023/07/12 01:53:20;;;;;;;;;;;29.90;60.50;;;;;;5131902;27;42938;-82
2023/07/12 01:55:45;;;;;;;;;;;29.80;60.40;;;;;;5122326;27;43495;-89
2023/07/12 01:58:11;;;;;;;;;;;29.80;60.40;;;;;;5140429;27;43052;-90
2023/07/12 02:00:37;;;;;;;;;;;29.80;60.40;;;;;;5145114;27;43195;-90
2023/07/12 02:03:02;;;;;;;;;;;29.80;60.40;;;;;;5145545;27;43192;-83
2023/07/12 02:05:28;;;;;;;;;;;29.90;60.50;;;;;;5133745;27;43116;-89
2023/07/12 02:07:56;;;;;;;;;;;29.80;60.40;;;;;;5145629;27;42845;-88
2023/07/12 02:10:22;;;;;;;;;;;29.80;60.40;;;;;;5145217;27;42957;-92
2023/07/12 02:12:47;;;;;;;;;;;29.80;60.40;;;;;;5145457;27;42753;-88
2023/07/12 02:15:13;;;;;;;;;;;29.80;60.50;;;;;;5142028;27;43639;-85
2023/07/12 02:17:39;;;;;;;;;;;29.80;60.50;;;;;;5124717;27;42981;-86
2023/07/12 02:20:05;;;;;;;;;;;29.80;60.50;;;;;;5139562;27;43453;-86
2023/07/12 02:22:33;;;;;;;;;;;29.80;61.00;;;;;;5145360;27;43078;-86
2023/07/12 02:24:58;;;;;;;;;;;29.80;60.50;;;;;;5145327;27;42855;-85
2023/07/12 02:27:24;;;;;;;;;;;29.80;60.50;;;;;;5124012;27;42951;-86
2023/07/12 02:29:50;;;;;;;;;;;29.80;60.50;;;;;;5134777;27;42950;-85
2023/07/12 02:32:15;;;;;;;;;;;29.80;60.50;;;;;;5138699;27;42967;-85
2023/07/12 02:34:41;;;;;;;;;;;29.80;60.50;;;;;;5147405;27;42988;-86
2023/07/12 02:37:06;;;;;;;;;;;29.80;60.60;;;;;;5128821;27;42963;-86
2023/07/12 02:39:32;;;;;;;;;;;29.80;60.50;;;;;;5145995;27;42945;-86
2023/07/12 02:41:57;;;;;;;;;;;29.80;60.60;;;;;;5136592;27;42909;-85
2023/07/12 02:44:23;;;;;;;;;;;29.80;60.60;;;;;;5147321;27;43027;-87
2023/07/12 02:46:48;;;;;;;;;;;29.80;60.60;;;;;;5145831;27;42781;-86
2023/07/12 02:49:14;;;;;;;;;;;29.70;60.50;;;;;;5145081;27;42825;-85
2023/07/12 02:51:39;;;;;;;;;;;29.80;60.60;;;;;;5134388;27;42894;-86
2023/07/12 02:54:05;;;;;;;;;;;29.80;60.60;;;;;;5148061;27;43499;-85
2023/07/12 02:56:30;;;;;;;;;;;29.70;60.60;;;;;;5129223;27;43026;-86
2023/07/12 02:58:56;;;;;;;;;;;29.80;60.60;;;;;;5121340;27;44362;-85
2023/07/12 03:01:21;;;;;;;;;;;29.80;60.60;;;;;;5140632;27;43038;-85
2023/07/12 03:03:47;;;;;;;;;;;29.70;60.60;;;;;;5140623;27;43626;-86
2023/07/12 03:06:12;;;;;;;;;;;29.70;60.60;;;;;;5114863;27;43066;-86
2023/07/12 03:08:39;;;;;;;;;;;29.70;60.60;;;;;;5141911;27;42967;-86
2023/07/12 03:11:06;;;;;;;;;;;29.80;60.60;;;;;;5115127;27;43068;-85
2023/07/12 03:13:31;;;;;;;;;;;29.70;60.50;;;;;;5127732;27;44719;-85
2023/07/12 03:15:58;;;;;;;;;;;29.70;60.60;;;;;;5127452;27;42966;-86
2023/07/12 03:18:24;;;;;;;;;;;29.70;60.60;;;;;;5108844;27;44782;-85
2023/07/12 03:20:49;;;;;;;;;;;29.70;60.60;;;;;;5130658;27;43028;-85
2023/07/12 03:23:15;;;;;;;;;;;29.70;60.60;;;;;;5128281;27;43000;-85
2023/07/12 03:25:44;;;;;;;;;;;29.70;60.60;;;;;;5138795;27;42931;-87
2023/07/12 03:28:09;;;;;;;;;;;29.70;60.60;;;;;;5129138;27;42957;-87
2023/07/12 03:30:35;;;;;;;;;;;29.70;60.60;;;;;;5137196;27;43000;-87
2023/07/12 03:33:00;;;;;;;;;;;29.70;60.60;;;;;;5129331;27;43785;-87
2023/07/12 03:35:26;;;;;;;;;;;29.70;60.60;;;;;;5139096;27;42846;-86
2023/07/12 03:37:52;;;;;;;;;;;29.80;61.30;;;;;;5120081;27;45703;-86
2023/07/12 03:40:17;;;;;;;;;;;29.80;60.70;;;;;;5114517;27;43069;-86
2023/07/12 03:42:43;;;;;;;;;;;29.60;60.50;;;;;;5136853;27;43566;-88
2023/07/12 03:45:09;;;;;;;;;;;29.70;60.60;;;;;;5127204;27;43047;-86
2023/07/12 03:47:34;;;;;;;;;;;29.70;60.60;;;;;;5136079;27;42953;-87
2023/07/12 03:50:00;;;;;;;;;;;29.70;60.60;;;;;;5142999;27;42814;-87
2023/07/12 03:52:25;;;;;;;;;;;29.70;60.50;;;;;;5117114;27;44419;-88
2023/07/12 03:54:51;;;;;;;;;;;29.70;60.50;;;;;;5127531;27;43739;-87
2023/07/12 03:57:16;;;;;;;;;;;29.70;60.50;;;;;;5146818;27;43487;-87
2023/07/12 03:59:41;;;;;;;;;;;29.70;60.50;;;;;;5137857;27;42982;-87
2023/07/12 04:02:07;;;;;;;;;;;29.70;60.50;;;;;;5143692;27;43435;-88
2023/07/12 04:04:32;;;;;;;;;;;29.70;60.50;;;;;;5124041;27;43021;-87
2023/07/12 04:07:00;;;;;;;;;;;29.80;60.60;;;;;;5146959;27;44116;-87
2023/07/12 04:09:26;;;;;;;;;;;29.70;60.50;;;;;;5143732;27;42986;-87
2023/07/12 04:11:51;;;;;;;;;;;29.80;60.50;;;;;;5146854;27;43523;-88
2023/07/12 04:14:17;;;;;;;;;;;29.70;60.50;;;;;;5136239;27;43230;-88
2023/07/12 04:16:44;;;;;;;;;;;29.70;60.40;;;;;;5134873;27;42982;-87
2023/07/12 04:19:09;;;;;;;;;;;29.80;60.50;;;;;;5132776;27;43268;-86
2023/07/12 04:21:35;;;;;;;;;;;29.70;60.40;;;;;;5147361;27;42919;-86
2023/07/12 04:24:01;;;;;;;;;;;29.80;60.50;;;;;;5136799;27;42922;-85
2023/07/12 04:26:27;;;;;;;;;;;29.70;60.40;;;;;;5147079;27;43004;-85
2023/07/12 04:28:52;;;;;;;;;;;29.70;60.40;;;;;;5117630;27;43245;-86
2023/07/12 04:31:19;;;;;;;;;;;29.80;60.50;;;;;;5140928;27;43880;-84
2023/07/12 04:33:46;;;;;;;;;;;29.80;60.50;;;;;;5147361;27;42954;-84
2023/07/12 04:36:12;;;;;;;;;;;29.80;60.50;;;;;;5135017;27;43213;-85
2023/07/12 04:38:37;;;;;;;;;;;29.80;60.50;;;;;;5137422;27;42950;-85
2023/07/12 04:41:04;;;;;;;;;;;29.80;60.50;;;;;;5146617;27;43531;-86
2023/07/12 04:43:30;;;;;;;;;;;29.80;60.50;;;;;;5138288;27;43155;-85
2023/07/12 04:45:56;;;;;;;;;;;29.80;60.40;;;;;;5145641;27;42895;-85
2023/07/12 04:48:22;;;;;;;;;;;29.80;60.40;;;;;;5143394;27;43538;-84
2023/07/12 04:50:51;;;;;;;;;;;29.80;60.40;;;;;;5139851;27;42942;-85
2023/07/12 04:53:17;;;;;;;;;;;29.80;60.90;;;;;;5108569;27;43049;-85
2023/07/12 04:55:42;;;;;;;;;;;29.80;60.40;;;;;;5133070;27;43577;-84
2023/07/12 04:58:08;;;;;;;;;;;29.80;60.40;;;;;;5144938;27;42990;-85
2023/07/12 05:00:33;;;;;;;;;;;29.80;60.30;;;;;;5140527;27;43564;-87
2023/07/12 05:02:59;;;;;;;;;;;29.80;60.30;;;;;;5126879;27;43006;-81
2023/07/12 05:05:25;;;;;;;;;;;29.80;60.90;;;;;;5124293;27;42876;-81
2023/07/12 05:07:50;;;;;;;;;;;29.80;61.00;;;;;;5125247;27;43025;-81
2023/07/12 05:10:17;;;;;;;;;;;29.80;60.90;;;;;;5107212;27;43344;-82
2023/07/12 05:12:42;;;;;;;;;;;29.80;60.80;;;;;;5125572;27;42873;-79
2023/07/12 05:15:08;;;;;;;;;;;29.90;60.90;;;;;;5126064;27;43296;-81
2023/07/12 05:17:35;;;;;;;;;;;29.80;60.80;;;;;;5134500;27;43082;-81
2023/07/12 05:20:01;;;;;;;;;;;29.80;60.30;;;;;;5145286;27;43962;-81
2023/07/12 05:22:26;;;;;;;;;;;29.80;60.80;;;;;;5145942;27;42947;-81
2023/07/12 05:24:52;;;;;;;;;;;29.80;60.80;;;;;;5145505;27;43561;-83
2023/07/12 05:27:18;;;;;;;;;;;29.80;60.80;;;;;;5145751;27;42988;-82
2023/07/12 05:29:43;;;;;;;;;;;29.80;60.80;;;;;;5144544;27;43499;-81
2023/07/12 05:32:09;;;;;;;;;;;29.80;60.80;;;;;;5145732;27;43065;-81
2023/07/12 05:34:35;;;;;;;;;;;29.90;60.90;;;;;;5144471;27;43724;-81
2023/07/12 05:37:01;;;;;;;;;;;29.80;60.20;;;;;;5146353;27;42856;-81
2023/07/12 05:39:26;;;;;;;;;;;29.90;60.80;;;;;;5146332;27;42979;-81
2023/07/12 05:41:52;;;;;;;;;;;29.90;60.90;;;;;;5137632;27;42990;-82
2023/07/12 05:44:17;;;;;;;;;;;29.80;60.70;;;;;;5125627;27;43623;-82
2023/07/12 05:46:43;;;;;;;;;;;29.90;60.80;;;;;;5126628;27;42964;-80
2023/07/12 05:49:08;;;;;;;;;;;29.90;60.80;;;;;;5125298;27;43497;-81
2023/07/12 05:51:34;;;;;;;;;;;29.90;60.20;;;;;;5122394;27;43150;-82
2023/07/12 05:53:59;;;;;;;;;;;29.90;60.70;;;;;;5145960;27;42929;-81
2023/07/12 05:56:25;;;;;;;;;;;29.90;60.10;;;;;;5130260;27;43043;-81
2023/07/12 05:58:50;;;;;;;;;;;29.90;60.10;;;;;;5134160;27;43710;-81
2023/07/12 06:01:17;;;;;;;;;;;29.90;60.70;;;;;;5130474;27;42964;-82
2023/07/12 06:03:42;;;;;;;;;;;29.90;60.10;;;;;;5134314;27;43006;-82
2023/07/12 06:06:09;;;;;;;;;;;29.90;60.10;;;;;;5145713;27;42821;-81
2023/07/12 06:08:35;;;;;;;;;;;29.80;60.50;;;;;;5137988;27;43541;-82
2023/07/12 06:11:00;;;;;;;;;;;29.90;60.60;;;;;;5128138;27;43079;-81
2023/07/12 06:13:26;;;;;;;;;;;29.90;60.60;;;;;;5128959;27;43653;-82
2023/07/12 06:15:51;;;;;;;;;;;29.90;60.60;;;;;;5129362;27;42959;-81
2023/07/12 06:18:17;;;;;;;;;;;29.90;60.60;;;;;;5128489;27;43626;-81
2023/07/12 06:20:43;;;;;;;;;;;29.90;60.50;;;;;;5128029;27;42886;-81
2023/07/12 06:23:08;;;;;;;;;;;29.90;60.60;;;;;;5129081;27;43813;-82
2023/07/12 06:25:34;;;;;;;;;;;29.90;60.00;;;;;;5128204;27;42928;-81
2023/07/12 06:27:59;;;;;;;;;;;29.90;59.90;;;;;;5128870;27;42944;-81
2023/07/12 06:30:25;;;;;;;;;;;29.90;59.90;;;;;;5108888;27;42963;-81
2023/07/12 06:32:50;;;;;;;;;;;29.90;59.90;;;;;;5128368;27;43345;-81
2023/07/12 06:35:16;;;;;;;;;;;29.90;59.90;;;;;;5108848;27;43075;-80
2023/07/12 06:37:41;;;;;;;;;;;29.90;60.40;;;;;;5128085;27;43063;-81
2023/07/12 06:40:07;;;;;;;;;;;29.90;60.40;;;;;;5128151;27;43034;-80
2023/07/12 06:42:33;;;;;;;;;;;30.00;60.50;;;;;;5114307;27;43168;-81
2023/07/12 06:44:59;;;;;;;;;;;30.00;59.90;;;;;;5127565;27;42923;-81
2023/07/12 06:47:24;;;;;;;;;;;30.00;60.50;;;;;;5127115;27;43874;-81
2023/07/12 06:49:50;;;;;;;;;;;30.00;59.90;;;;;;5127709;27;43011;-81
2023/07/12 06:52:15;;;;;;;;;;;29.90;60.40;;;;;;5127349;27;43723;-81
2023/07/12 06:54:41;;;;;;;;;;;30.00;60.40;;;;;;5127776;27;43008;-81
2023/07/12 06:57:06;;;;;;;;;;;30.00;60.40;;;;;;5128034;27;43386;-81
2023/07/12 06:59:32;;;;;;;;;;;30.00;59.90;;;;;;5127874;27;43219;-81
2023/07/12 07:01:57;;;;;;;;;;;30.00;60.40;;;;;;5120199;27;43927;-81
2023/07/12 07:04:23;;;;;;;;;;;30.00;60.40;;;;;;5121755;27;43038;-82
2023/07/12 07:06:49;;;;;;;;;;;30.00;60.30;;;;;;5127963;27;43083;-82
2023/07/12 07:09:14;;;;;;;;;;;30.00;60.30;;;;;;5127232;27;42952;-82
2023/07/12 07:11:41;;;;;;;;;;;30.00;60.40;;;;;;5127590;27;42918;-81
2023/07/12 07:14:06;;;;;;;;;;;28.40;59.20;;;;;;5127592;27;43004;-82
2023/07/12 07:16:32;;;;;;;;;;;30.00;59.80;;;;;;5127589;27;43131;-82
2023/07/12 07:18:58;;;;;;;;;;;30.00;59.70;;;;;;5126913;27;42940;-81
2023/07/12 07:21:23;;;;;;;;;;;30.00;59.70;;;;;;5126295;27;43816;-81
2023/07/12 07:23:49;;;;;;;;;;;30.00;59.70;;;;;;5127533;27;42923;-82
2023/07/12 07:26:15;;;;;;;;;;;30.00;59.70;;;;;;5126961;27;43586;-82
2023/07/12 07:28:41;;;;;;;;;;;30.00;59.70;;;;;;5107977;27;42944;-82
2023/07/12 07:31:07;;;;;;;;;;;30.00;59.70;;;;;;5127114;27;43456;-81
2023/07/12 07:33:32;;;;;;;;;;;30.00;59.70;;;;;;5126784;27;42979;-81
2023/07/12 07:35:58;;;;;;;;;;;30.00;59.70;;;;;;5109272;27;45496;-80
2023/07/12 07:38:27;;;;;;;;;;;30.00;59.70;;;;;;5108245;27;42933;-81
2023/07/12 07:40:52;;;;;;;;;;;30.00;59.70;;;;;;5127550;27;43155;-81
2023/07/12 07:43:18;;;;;;;;;;;30.00;59.70;;;;;;5126522;27;43043;-82
2023/07/12 07:45:43;;;;;;;;;;;30.00;59.70;;;;;;5125920;27;42909;-81
2023/07/12 07:48:10;;;;;;;;;;;30.10;59.70;;;;;;5125968;27;43004;-81
2023/07/12 07:50:36;;;;;;;;;;;30.10;59.70;;;;;;5126760;27;43562;-81
2023/07/12 07:53:03;;;;;;;;;;;30.00;59.60;;;;;;5127082;27;42976;-82
2023/07/12 07:55:29;;;;;;;;;;;30.00;59.60;;;;;;5127483;27;42982;-82
2023/07/12 07:57:54;;;;;;;;;;;30.00;59.60;;;;;;5127077;27;42973;-82
2023/07/12 08:00:20;;;;;;;;;;;30.00;59.60;;;;;;5127388;27;42990;-82
2023/07/12 08:02:46;;;;;;;;;;;30.00;59.60;;;;;;5126607;27;42968;-82
2023/07/12 08:05:12;;;;;;;;;;;30.00;59.60;;;;;;5126483;27;43523;-81
2023/07/12 08:07:42;;;;;;;;;;;30.10;59.70;;;;;;5126418;27;42888;-81
2023/07/12 08:10:11;;;;;;;;;;;30.10;59.60;;;;;;5107550;27;43039;-81
2023/07/12 08:12:37;;;;;;;;;;;30.10;59.60;;;;;;5126995;27;42993;-81
2023/07/12 08:15:03;;;;;;;;;;;30.00;59.50;;;;;;5126888;27;42872;-81
2023/07/12 08:17:29;;;;;;;;;;;30.10;59.60;;;;;;5126371;27;42756;-81
2023/07/12 08:19:54;;;;;;;;;;;30.10;59.50;;;;;;5107831;27;43537;-82
2023/07/12 08:22:20;;;;;;;;;;;30.10;59.50;;;;;;5107751;27;42968;-81
2023/07/12 08:24:46;;;;;;;;;;;30.10;59.50;;;;;;5125539;27;43056;-81
2023/07/12 08:27:12;;;;;;;;;;;30.00;59.50;;;;;;5144460;27;43056;-81
2023/07/12 08:29:38;;;;;;;;;;;30.10;59.50;;;;;;5146560;27;43440;-81
2023/07/12 08:32:04;;;;;;;;;;;30.10;59.50;;;;;;5146595;27;42987;-81
2023/07/12 08:34:30;;;;;;;;;;;30.10;59.50;;;;;;5146297;27;42972;-81
2023/07/12 08:36:55;;;;;;;;;;;30.10;59.50;;;;;;5126704;27;42999;-81
2023/07/12 08:39:21;;;;;;;;;;;30.10;59.50;;;;;;5146319;27;43060;-82
2023/07/12 08:41:47;;;;;;;;;;;30.10;59.50;;;;;;5145280;27;43009;-82
2023/07/12 08:44:14;;;;;;;;;;;30.10;60.10;;;;;;5146140;27;43739;-81
2023/07/12 08:46:43;;;;;;;;;;;30.00;59.40;;;;;;5124826;27;43223;-81
2023/07/12 08:49:16;;;;;;;;;;;30.10;59.40;;;;;;5127876;27;44195;-81
2023/07/12 08:51:42;;;;;;;;;;;30.10;59.90;;;;;;5146277;27;42949;-81
2023/07/12 08:54:17;;;;;;;;;;;30.10;59.40;;;;;;5146459;27;42921;-81
2023/07/12 08:56:42;;;;;;;;;;;30.10;59.40;;;;;;5145918;27;43098;-82
2023/07/12 08:59:12;;;;;;;;;;;30.10;59.40;;;;;;5146928;27;43139;-81
2023/07/12 09:01:42;;;;;;;;;;;30.10;59.40;;;;;;5123044;27;42943;-81
2023/07/12 09:04:34;;;;;;;;;;;30.10;59.40;;;;;;5138985;27;43107;-81
2023/07/12 09:07:01;;;;;;;;;;;30.10;59.40;;;;;;5141664;27;42979;-81
2023/07/12 09:09:27;;;;;;;;;;;30.10;59.40;;;;;;5130208;27;42775;-81
2023/07/12 09:11:53;;;;;;;;;;;30.10;59.40;;;;;;5126450;27;42970;-81
2023/07/12 09:14:20;;;;;;;;;;;30.10;59.90;;;;;;5125716;27;42914;-81
2023/07/12 09:16:50;;;;;;;;;;;30.10;59.40;;;;;;5126227;27;43008;-81
2023/07/12 09:19:16;;;;;;;;;;;30.10;59.40;;;;;;5126503;27;43690;-81
2023/07/12 09:21:45;;;;;;;;;;;30.10;59.90;;;;;;5108208;27;42905;-79
2023/07/12 09:24:12;;;;;;;;;;;30.10;59.90;;;;;;5126190;27;43888;-81
2023/07/12 09:26:38;;;;;;;;;;;30.10;59.40;;;;;;5125276;27;42940;-81
2023/07/12 09:29:07;;;;;;;;;;;30.10;59.40;;;;;;5124408;27;43406;-81
2023/07/12 09:31:37;;;;;;;;;;;30.10;59.40;;;;;;5125689;27;43019;-81
2023/07/12 09:34:05;;;;;;;;;;;30.10;59.40;;;;;;5125072;27;42940;-80
2023/07/12 09:36:33;;;;;;;;;;;30.20;59.40;;;;;;5125831;27;43001;-81
2023/07/12 09:39:00;;;;;;;;;;;30.10;59.40;;;;;;5124188;27;43401;-81
2023/07/12 09:41:25;;;;;;;;;;;30.10;59.40;;;;;;5125539;27;42874;-81
2023/07/12 09:43:55;;;;;;;;;;;30.10;59.40;;;;;;5126415;27;43658;-81
2023/07/12 09:46:33;;;;;;;;;;;30.10;59.80;;;;;;5129130;27;42897;-81
2023/07/12 09:49:05;;;;;;;;;;;30.10;59.30;;;;;;5128969;27;42882;-81
2023/07/12 09:51:33;;;;;;;;;;;30.10;59.30;;;;;;5129001;27;42882;-80
2023/07/12 09:53:59;;;;;;;;;;;30.20;59.40;;;;;;5128759;27;43666;-81
2023/07/12 09:56:32;;;;;;;;;;;30.10;59.80;;;;;;5128245;27;42984;-81
2023/07/12 09:59:03;;;;;;;;;;;30.20;59.80;;;;;;5129273;27;43515;-80
2023/07/12 10:01:49;;;;;;;;;;;30.10;59.80;;;;;;5128717;27;43106;-81
2023/07/12 10:04:35;;;;;;;;;;;30.20;59.40;;;;;;5127435;27;42920;-81
2023/07/12 10:07:03;;;;;;;;;;;30.20;59.40;;;;;;5117742;27;42883;-81
2023/07/12 10:09:33;;;;;;;;;;;30.10;59.30;;;;;;5127856;27;42923;-81
2023/07/12 10:12:19;;;;;;;;;;;30.20;59.30;;;;;;5129029;27;43031;-81
2023/07/12 10:14:45;;;;;;;;;;;30.20;59.80;;;;;;5126295;27;42935;-81
2023/07/12 10:17:17;;;;;;;;;;;30.20;59.30;;;;;;5128272;27;42958;-79
2023/07/12 10:19:46;;;;;;;;;;;30.20;59.30;;;;;;5128601;27;43080;-81
2023/07/12 10:22:15;;;;;;;;;;;30.20;59.30;;;;;;5109772;27;43020;-80
2023/07/12 10:24:42;;;;;;;;;;;30.20;59.30;;;;;;5128344;27;43602;-80
2023/07/12 10:27:16;;;;;;;;;;;30.20;59.80;;;;;;5146863;27;42891;-81
2023/07/12 10:29:47;;;;;;;;;;;30.20;59.30;;;;;;5148189;27;42999;-80
2023/07/12 10:32:35;;;;;;;;;;;30.20;59.80;;;;;;5149815;27;43097;-80
2023/07/12 10:35:07;;;;;;;;;;;30.20;59.30;;;;;;5143313;27;43922;-81
2023/07/12 10:37:40;;;;;;;;;;;30.20;59.70;;;;;;5128736;27;42946;-80
2023/07/12 10:40:12;;;;;;;;;;;30.20;59.30;;;;;;5127795;27;42896;-80
2023/07/12 10:42:50;;;;;;;;;;;30.20;59.30;;;;;;5133403;27;42826;-80
2023/07/12 10:45:21;;;;;;;;;;;30.20;59.30;;;;;;5148602;27;42990;-81
2023/07/12 10:47:48;;;;;;;;;;;30.20;59.30;;;;;;5147869;27;43173;-81
2023/07/12 10:50:24;;;;;;;;;;;30.20;59.70;;;;;;5148236;27;44521;-80
2023/07/12 10:52:55;;;;;;;;;;;30.20;59.20;;;;;;5148566;27;43597;-81
2023/07/12 10:55:41;;;;;;;;;;;30.20;59.70;;;;;;5147198;27;43542;-81
2023/07/12 10:58:24;;;;;;;;;;;30.20;59.20;;;;;;5146540;27;42872;-81
2023/07/12 11:00:52;;;;;;;;;;;30.20;59.70;;;;;;5148398;27;43595;-82
2023/07/12 11:03:19;;;;;;;;;;;30.20;59.20;;;;;;5129365;27;43175;-81
2023/07/12 11:05:45;;;;;;;;;;;30.20;59.70;;;;;;5148390;27;43574;-81
2023/07/12 11:08:43;;;;;;;;;;;30.20;59.20;;;;;;5147517;27;43353;-81
2023/07/12 11:11:08;;;;;;;;;;;30.20;59.20;;;;;;5082797;27;42951;-81
2023/07/12 11:13:35;;;;;;;;;;;30.20;59.70;;;;;;5140558;27;42936;-82
2023/07/12 11:16:05;;;;;;;;;;;30.30;59.70;;;;;;5128144;27;43437;-81
2023/07/12 11:18:33;;;;;;;;;;;30.20;59.60;;;;;;5128477;27;42933;-81
2023/07/12 11:21:01;;;;;;;;;;;30.20;59.20;;;;;;5127926;27;42944;-81
2023/07/12 11:23:26;;;;;;;;;;;34.10;62.60;;;;;;5127758;27;43246;-81
2023/07/12 11:26:00;;;;;;;;;;;30.20;59.20;;;;;;5127147;27;43432;-81
2023/07/12 11:28:39;;;;;;;;;;;30.20;59.20;;;;;;5127510;27;43004;-80
2023/07/12 11:31:26;;;;;;;;;;;30.20;59.20;;;;;;5108179;27;43478;-81
2023/07/12 11:34:00;;;;;;;;;;;30.30;59.20;;;;;;5126484;27;42959;-81
2023/07/12 11:36:28;;;;;;;;;;;30.20;59.10;;;;;;5126871;27;42969;-81
2023/07/12 11:38:54;;;;;;;;;;;30.20;59.60;;;;;;5126833;27;43013;-81
2023/07/12 11:41:24;;;;;;;;;;;30.20;59.60;;;;;;5126955;27;43728;-81
2023/07/12 11:44:00;;;;;;;;;;;30.20;59.50;;;;;;5127220;27;43129;-81
2023/07/12 11:46:29;;;;;;;;;;;30.30;59.20;;;;;;5127043;27;43446;-80
2023/07/12 11:48:57;;;;;;;;;;;30.20;59.60;;;;;;5113556;27;43761;-81
2023/07/12 11:51:34;;;;;;;;;;;30.20;59.10;;;;;;5126599;27;42912;-81
2023/07/12 11:54:00;;;;;;;;;;;30.20;59.60;;;;;;5127336;27;42899;-81
2023/07/12 11:56:26;;;;;;;;;;;30.30;59.60;;;;;;5126649;27;42833;-81
2023/07/12 11:58:52;;;;;;;;;;;30.30;59.10;;;;;;5127268;27;42943;-81
2023/07/12 12:01:18;;;;;;;;;;;30.30;59.60;;;;;;5107807;27;43492;-81
2023/07/12 12:03:47;;;;;;;;;;;30.30;59.60;;;;;;5126631;27;42953;-80
2023/07/12 12:06:13;;;;;;;;;;;30.30;59.60;;;;;;5125971;27;42956;-82
2023/07/12 12:08:42;;;;;;;;;;;30.30;59.50;;;;;;5126377;27;42912;-80
2023/07/12 12:11:07;;;;;;;;;;;30.20;59.40;;;;;;5126362;27;43081;-81
2023/07/12 12:13:33;;;;;;;;;;;30.30;59.60;;;;;;5126644;27;42920;-81
2023/07/12 12:15:58;;;;;;;;;;;30.30;59.50;;;;;;5127033;27;42990;-81
2023/07/12 12:18:24;;;;;;;;;;;30.30;59.60;;;;;;5126464;27;43871;-80
2023/07/12 12:20:55;;;;;;;;;;;30.30;59.60;;;;;;5126331;27;43685;-81
2023/07/12 12:23:26;;;;;;;;;;;30.30;59.40;;;;;;5112860;27;42946;-81
2023/07/12 12:25:52;;;;;;;;;;;30.20;58.90;;;;;;5132458;27;43727;-81
2023/07/12 12:28:20;;;;;;;;;;;30.30;59.00;;;;;;5147377;27;42907;-81
2023/07/12 12:30:56;;;;;;;;;;;30.30;59.40;;;;;;5132546;27;42927;-81
2023/07/12 12:33:22;;;;;;;;;;;30.30;59.50;;;;;;5121878;27;42906;-81
2023/07/12 12:35:52;;;;;;;;;;;30.30;59.40;;;;;;5139157;27;42919;-81
2023/07/12 12:38:19;;;;;;;;;;;30.30;59.00;;;;;;5146412;27;43013;-81
2023/07/12 12:40:53;;;;;;;;;;;30.30;59.40;;;;;;5147295;27;43687;-81
2023/07/12 12:43:19;;;;;;;;;;;30.30;59.40;;;;;;5133244;27;42888;-81
2023/07/12 12:45:44;;;;;;;;;;;30.30;59.00;;;;;;5145028;27;43433;-81
2023/07/12 12:48:13;;;;;;;;;;;30.30;59.00;;;;;;5146235;27;42867;-81
2023/07/12 12:50:39;;;;;;;;;;;30.30;59.00;;;;;;5146658;27;43587;-81
2023/07/12 12:53:05;;;;;;;;;;;30.30;59.40;;;;;;5146319;27;42958;-82
2023/07/12 12:55:33;;;;;;;;;;;30.30;59.40;;;;;;5127188;27;44495;-81
2023/07/12 12:57:59;;;;;;;;;;;30.30;59.40;;;;;;5145572;27;42921;-80
2023/07/12 13:00:25;;;;;;;;;;;30.30;59.40;;;;;;5146345;27;43602;-81
2023/07/12 13:02:53;;;;;;;;;;;30.30;58.90;;;;;;5146030;27;42967;-81
2023/07/12 13:05:19;;;;;;;;;;;30.30;58.90;;;;;;5145646;27;42940;-82
2023/07/12 13:07:45;;;;;;;;;;;30.30;58.90;;;;;;5145218;27;42831;-81
2023/07/12 13:10:15;;;;;;;;;;;30.30;58.90;;;;;;5145898;27;43727;-81
2023/07/12 13:12:42;;;;;;;;;;;30.30;58.80;;;;;;5144107;27;42982;-81
2023/07/12 13:15:12;;;;;;;;;;;30.30;58.80;;;;;;5145414;27;42837;-82
2023/07/12 13:17:37;;;;;;;;;;;30.30;58.80;;;;;;5142535;27;43323;-82
2023/07/12 13:20:03;;;;;;;;;;;30.30;59.30;;;;;;5145044;27;43801;-82
2023/07/12 13:22:28;;;;;;;;;;;30.30;58.80;;;;;;5144821;27;42948;-81
2023/07/12 13:24:54;;;;;;;;;;;30.30;59.30;;;;;;5145448;27;43024;-82
2023/07/12 13:27:26;;;;;;;;;;;30.30;59.30;;;;;;5143785;27;42857;-81
2023/07/12 13:29:52;;;;;;;;;;;30.30;59.30;;;;;;5146074;27;43445;-81
2023/07/12 13:32:18;;;;;;;;;;;30.30;59.30;;;;;;5143253;27;42966;-80
2023/07/12 13:34:44;;;;;;;;;;;30.30;59.20;;;;;;5144601;27;43454;-81
2023/07/12 13:37:17;;;;;;;;;;;30.30;59.20;;;;;;5143507;27;42918;-82
2023/07/12 13:39:44;;;;;;;;;;;30.30;58.70;;;;;;5144956;27;43644;-81
2023/07/12 13:42:10;;;;;;;;;;;30.30;58.70;;;;;;5144236;27;43162;-80
2023/07/12 13:44:37;;;;;;;;;;;30.30;59.20;;;;;;5146583;27;42873;-80
2023/07/12 13:47:12;;;;;;;;;;;30.30;58.70;;;;;;5145478;27;42938;-81
2023/07/12 13:49:37;;;;;;;;;;;30.40;59.20;;;;;;5146384;27;42943;-80
2023/07/12 13:52:03;;;;;;;;;;;30.30;59.10;;;;;;5126383;27;43524;-79
2023/07/12 13:54:29;;;;;;;;;;;30.30;59.20;;;;;;5138650;27;42844;-80
2023/07/12 13:56:54;;;;;;;;;;;30.30;59.20;;;;;;5145102;27;43026;-81
2023/07/12 13:59:20;;;;;;;;;;;30.30;58.70;;;;;;5127196;27;44266;-81
2023/07/12 14:01:45;;;;;;;;;;;29.70;58.80;;;;;;5146222;27;43017;-81
2023/07/12 14:04:12;;;;;;;;;;;30.30;59.10;;;;;;5146440;27;43196;-81
2023/07/12 14:06:37;;;;;;;;;;;30.40;58.70;;;;;;5146100;27;42831;-82
2023/07/12 14:09:03;;;;;;;;;;;30.40;58.70;;;;;;5141618;27;42943;-82
2023/07/12 14:11:31;;;;;;;;;;;30.30;58.60;;;;;;5125718;27;42938;-81
2023/07/12 14:13:57;;;;;;;;;;;30.40;59.10;;;;;;5125316;27;42931;-81
2023/07/12 14:16:23;;;;;;;;;;;30.30;59.10;;;;;;5125485;27;42855;-82